Time;durP1;ratioP1;P1;durP2;ratioP2;P2;SDS_P1;SDS_P2;PMS_P1;PMS_P2;Temp;Humidity;BMP_temperature;BMP_pressure;BME280_temperature;BME280_humidity;BME280_pressure;Samples;Min_cycle;Max_cycle;Signal;HPM_P1;HPM_P2
2022/06/19 00:04:25;;;;;;;21.33;12.23;;;;;;;15.49;80.88;99163.67;4250794;83;21030;-84
2022/06/19 00:10:31;;;;;;;22.77;12.50;;;;;;;15.37;81.20;99162.73;4226147;83;21061;-83
2022/06/19 00:16:34;;;;;;;18.32;11.53;;;;;;;15.32;81.50;99163.14;4240657;83;21080;-83
2022/06/19 00:22:37;;;;;;;17.37;10.43;;;;;;;15.22;82.00;99171.66;4222907;83;21067;-84
2022/06/19 00:28:59;;;;;;;16.70;10.32;;;;;;;15.22;82.67;99168.91;4163403;83;21524;-83
2022/06/19 00:35:03;;;;;;;19.12;9.63;;;;;;;15.21;82.85;99172.06;4255182;83;20999;-83
2022/06/19 00:41:05;;;;;;;12.45;9.13;;;;;;;15.13;82.98;99161.66;4218073;83;21053;-83
2022/06/19 00:47:34;;;;;;;14.00;9.63;;;;;;;15.04;83.39;99157.18;4163102;83;21551;-83
2022/06/19 00:53:48;;;;;;;13.50;8.20;;;;;;;14.99;83.73;99146.56;4155997;84;21026;-83
2022/06/19 01:00:14;;;;;;;14.23;9.30;;;;;;;15.13;84.09;99140.19;4148330;84;21430;-82
2022/06/19 01:13:28;;;;;;;14.83;7.60;;;;;;;14.98;84.22;99137.31;4158240;84;21097;-83
2022/06/19 01:19:43;;;;;;;12.40;8.35;;;;;;;14.81;84.32;99132.66;4141158;84;21571;-82
2022/06/19 01:25:44;;;;;;;11.95;8.65;;;;;;;14.62;84.32;99129.78;4154870;84;21019;-83
2022/06/19 01:31:52;;;;;;;12.33;7.92;;;;;;;14.52;84.87;99113.29;4117111;85;21086;-83
2022/06/19 01:37:55;;;;;;;14.93;9.13;;;;;;;14.47;85.21;99104.05;4145661;84;21219;-83
2022/06/19 01:43:57;;;;;;;14.60;9.35;;;;;;;14.35;85.25;99097.56;4147645;84;21006;-82
2022/06/19 01:50:01;;;;;;;14.07;9.18;;;;;;;14.26;85.59;99095.83;4206453;83;21065;-83
2022/06/19 01:56:20;;;;;;;12.90;9.35;;;;;;;14.19;85.90;99088.33;4194695;83;21437;-82
2022/06/19 02:02:23;;;;;;;13.22;8.95;;;;;;;14.17;86.21;99087.96;4246594;82;21553;-83
2022/06/19 02:08:33;;;;;;;16.30;9.20;;;;;;;14.13;86.28;99094.84;4237326;82;21561;-82
2022/06/19 02:14:35;;;;;;;18.23;8.95;;;;;;;14.08;86.56;99086.18;4238763;82;21038;-83
2022/06/19 02:20:36;;;;;;;15.08;9.60;;;;;;;14.02;86.81;99081.68;4261752;83;21120;-83
2022/06/19 02:26:42;;;;;;;16.42;9.55;;;;;;;13.98;86.98;99078.74;4242130;82;21061;-82
2022/06/19 02:32:48;;;;;;;12.98;9.00;;;;;;;13.97;87.33;99071.06;4235290;82;21070;-83
2022/06/19 02:38:49;;;;;;;12.00;8.65;;;;;;;13.96;87.25;99072.84;4229623;82;21875;-82
2022/06/19 02:44:55;;;;;;;12.60;9.45;;;;;;;13.92;87.72;99074.21;4236606;82;21039;-82
2022/06/19 02:51:01;;;;;;;14.25;9.35;;;;;;;13.86;87.77;99077.17;4232573;82;21723;-83
2022/06/19 02:57:05;;;;;;;12.23;8.80;;;;;;;13.85;88.17;99088.57;4246898;81;21051;-82
2022/06/19 03:03:26;;;;;;;9.38;7.53;;;;;;;13.87;88.42;99083.47;4263897;82;21535;-82
2022/06/19 03:22:54;;;;;;;10.72;7.65;;;;;;;13.89;89.30;99090.14;4248576;82;21034;-85
2022/06/19 03:29:15;;;;;;;8.85;7.05;;;;;;;13.94;89.48;99095.83;4229461;82;21074;-84
2022/06/19 03:43:06;;;;;;;8.40;6.20;;;;;;;13.98;89.86;99102.14;4077282;86;21468;-84
2022/06/19 03:56:38;;;;;;;6.95;5.75;;;;;;;14.32;90.36;99090.90;4040367;84;21062;-85
2022/06/19 04:02:49;;;;;;;8.10;6.03;;;;;;;14.48;90.71;99088.50;4180714;84;21030;-84
2022/06/19 04:09:11;;;;;;;9.13;6.28;;;;;;;14.72;90.78;99090.98;4135840;84;21038;-84
2022/06/19 04:15:13;;;;;;;8.93;5.85;;;;;;;14.82;90.59;99086.79;4166534;84;21605;-84
2022/06/19 04:22:04;;;;;;;7.95;5.37;;;;;;;14.93;90.69;99087.53;4166842;84;21076;-84
2022/06/19 04:28:26;;;;;;;10.90;6.35;;;;;;;15.11;90.67;99086.83;4167760;85;21002;-84
2022/06/19 04:41:57;;;;;;;9.50;5.67;;;;;;;15.49;90.99;99079.52;4170766;84;21017;-84
2022/06/19 04:55:04;;;;;;;10.23;6.50;;;;;;;15.97;91.04;99069.88;4254904;81;21493;-85
2022/06/19 05:08:08;;;;;;;8.00;5.65;;;;;;;16.48;91.29;99053.97;4158125;84;21053;-84
2022/06/19 05:14:10;;;;;;;8.23;5.33;;;;;;;16.79;91.48;99063.06;4125437;84;21050;-85
2022/06/19 05:20:25;;;;;;;7.28;5.17;;;;;;;17.08;90.90;99051.83;4162444;83;21042;-85
2022/06/19 05:47:04;;;;;;;7.15;3.95;;;;;;;18.47;89.79;99037.44;4176726;84;21008;-84
2022/06/19 05:53:39;;;;;;;3.98;3.10;;;;;;;18.84;89.02;99041.84;4150266;85;21788;-85
2022/06/19 06:13:34;;;;;;;2.85;2.20;;;;;;;20.02;87.03;99016.59;4046551;86;21038;-85
2022/06/19 06:19:53;;;;;;;3.63;2.27;;;;;;;20.64;85.34;99014.69;4056503;86;22007;-85
2022/06/19 06:26:20;;;;;;;4.00;2.45;;;;;;;21.07;82.37;99002.49;4138674;84;21072;-86
2022/06/19 06:33:00;;;;;;;4.42;2.05;;;;;;;21.59;77.86;99002.81;4154902;83;21564;-86
2022/06/19 06:40:00;;;;;;;1.95;1.77;;;;;;;21.99;79.18;99000.90;4202888;83;21103;-85
2022/06/19 06:46:33;;;;;;;3.10;1.65;;;;;;;22.17;78.70;98998.25;4170963;84;21035;-85
2022/06/19 06:53:03;;;;;;;2.30;1.72;;;;;;;22.49;77.75;98993.72;4232978;82;21120;-85
2022/06/19 06:59:04;;;;;;;3.08;1.98;;;;;;;22.99;76.53;98975.27;4233595;82;21026;-86
2022/06/19 07:05:07;;;;;;;2.42;1.70;;;;;;;23.58;75.66;98974.88;4244306;82;21057;-87
2022/06/19 07:11:25;;;;;;;4.40;2.10;;;;;;;24.19;74.12;98971.08;4254919;83;21030;-85
2022/06/19 07:17:27;;;;;;;1.85;1.55;;;;;;;24.74;71.88;98964.19;4241995;82;21081;-86
2022/06/19 07:23:28;;;;;;;1.60;1.50;;;;;;;25.85;68.23;98946.53;4242750;82;22061;-87
2022/06/19 07:29:29;;;;;;;2.85;1.52;;;;;;;25.85;68.23;98946.53;4252699;81;21837;-87
2022/06/19 07:35:30;;;;;;;2.80;1.57;;;;;;;26.06;65.74;98944.82;4239231;82;21110;-87
2022/06/19 07:41:32;;;;;;;5.62;1.80;;;;;;;26.45;64.17;98953.97;4242114;82;21657;-87
2022/06/19 07:54:14;;;;;;;4.83;1.50;;;;;;;27.13;62.51;98952.62;4243277;82;21066;-86
2022/06/19 08:00:31;;;;;;;1.98;1.45;;;;;;;27.27;61.82;98937.01;4220161;82;21984;-86
2022/06/19 08:06:46;;;;;;;2.75;1.52;;;;;;;27.36;58.04;98933.44;4213803;82;21075;-86
2022/06/19 08:12:57;;;;;;;5.12;1.47;;;;;;;27.55;60.03;98940.36;4212892;83;21040;-87
2022/06/19 08:18:58;;;;;;;3.98;1.75;;;;;;;27.63;58.78;98947.13;4211203;83;21635;-86
2022/06/19 08:24:59;;;;;;;5.15;1.60;;;;;;;27.83;58.59;98937.90;4123273;85;21459;-87
2022/06/19 08:31:01;;;;;;;3.87;1.42;;;;;;;27.98;56.24;98930.20;4174950;83;21535;-87
2022/06/19 08:37:17;;;;;;;3.20;1.65;;;;;;;28.12;56.45;98932.16;4208639;83;21034;-86
2022/06/19 08:51:04;;;;;;;3.60;1.60;;;;;;;28.41;53.83;98917.11;4201867;83;21026;-86
2022/06/19 08:57:20;;;;;;;3.95;1.50;;;;;;;28.39;51.56;98917.61;4222299;82;21062;-86
2022/06/19 09:11:37;;;;;;;1.23;0.87;;;;;;;28.62;52.64;98907.34;4222407;83;21078;-85
2022/06/19 09:18:06;;;;;;;4.37;1.27;;;;;;;28.91;51.90;98922.58;4220148;83;21109;-85
2022/06/19 09:24:40;;;;;;;5.80;1.80;;;;;;;29.13;50.48;98917.77;4131748;84;21058;-86
2022/06/19 09:31:18;;;;;;;4.78;1.65;;;;;;;29.36;49.99;98918.81;4174849;83;21531;-85
2022/06/19 09:37:58;;;;;;;2.55;1.32;;;;;;;29.73;48.57;98896.98;4166022;83;21074;-87
2022/06/19 09:44:26;;;;;;;5.22;1.32;;;;;;;30.20;49.26;98901.78;4177183;83;21054;-85
2022/06/19 09:50:51;;;;;;;3.90;1.22;;;;;;;30.50;49.22;98891.56;4173168;83;21117;-87
2022/06/19 09:57:04;;;;;;;5.08;1.30;;;;;;;30.62;48.91;98876.78;4174465;83;21070;-86
2022/06/19 10:03:31;;;;;;;5.87;1.55;;;;;;;30.93;48.54;98865.89;4209590;83;21026;-86
2022/06/19 10:09:56;;;;;;;2.98;1.62;;;;;;;31.17;47.68;98864.05;4213721;83;21597;-86
2022/06/19 10:16:05;;;;;;;5.67;1.85;;;;;;;31.21;46.44;98844.77;4235238;82;21057;-87
2022/06/19 10:22:37;;;;;;;3.70;1.55;;;;;;;31.37;44.97;98837.55;4236018;82;21446;-84
2022/06/19 10:29:05;;;;;;;4.05;1.50;;;;;;;31.68;44.42;98836.49;4212300;83;21102;-86
2022/06/19 10:35:15;;;;;;;9.28;1.70;;;;;;;32.24;45.67;98832.73;4211604;83;21611;-86
2022/06/19 10:42:01;;;;;;;5.30;1.50;;;;;;;32.73;45.02;98830.14;4173821;83;21022;-87
2022/06/19 10:48:30;;;;;;;5.70;2.02;;;;;;;32.64;42.61;98826.23;4026942;86;21803;-86
2022/06/19 10:54:56;;;;;;;5.83;1.17;;;;;;;32.87;42.80;98821.14;4238133;82;21085;-87
2022/06/19 11:01:02;;;;;;;4.17;1.20;;;;;;;33.30;42.73;98817.72;4244091;82;21084;-88
2022/06/19 11:07:08;;;;;;;5.70;1.50;;;;;;;33.44;42.66;98812.97;4239459;82;21019;-86
2022/06/19 11:13:11;;;;;;;3.72;1.10;;;;;;;33.63;41.56;98804.57;4247156;82;21665;-87
2022/06/19 11:19:33;;;;;;;3.17;1.20;;;;;;;33.73;40.43;98800.06;4244191;82;21165;-86
2022/06/19 11:25:38;;;;;;;2.55;1.20;;;;;;;33.89;40.56;98784.09;4237134;82;21610;-86
2022/06/19 11:32:04;;;;;;;5.00;1.77;;;;;;;34.11;40.47;98778.11;4219649;83;21100;-86
2022/06/19 11:38:06;;;;;;;4.33;1.30;;;;;;;34.37;39.69;98771.08;4239496;82;21093;-86
2022/06/19 11:44:20;;;;;;;7.22;1.12;;;;;;;34.64;39.67;98764.93;4232986;82;21571;-87
2022/06/19 11:50:35;;;;;;;6.80;1.23;;;;;;;34.53;39.13;98758.70;4219270;83;21572;-87
2022/06/19 11:56:38;;;;;;;7.40;1.67;;;;;;;34.64;38.67;98764.19;4171309;84;21043;-87
2022/06/19 12:02:41;;;;;;;7.47;1.65;;;;;;;34.51;39.00;98756.40;4183629;83;21081;-89
2022/06/19 12:09:04;;;;;;;5.72;1.30;;;;;;;34.48;38.08;98751.03;4174488;83;21062;-87
2022/06/19 12:15:26;;;;;;;5.92;1.37;;;;;;;34.26;37.45;98741.44;4181136;83;21100;-86
2022/06/19 12:21:33;;;;;;;6.75;1.87;;;;;;;33.82;37.52;98735.79;4186864;83;21054;-86
2022/06/19 12:27:40;;;;;;;2.65;1.40;;;;;;;33.43;36.34;98722.81;4177162;83;21113;-85
2022/06/19 12:33:52;;;;;;;3.65;1.27;;;;;;;33.05;36.49;98714.13;4176028;83;21547;-85
2022/06/19 12:39:59;;;;;;;6.37;2.17;;;;;;;32.79;35.71;98697.66;4182179;83;21074;-86
2022/06/19 12:46:12;;;;;;;6.05;1.65;;;;;;;32.47;35.50;98688.22;4170074;83;21045;-86
2022/06/19 12:52:48;;;;;;;8.85;4.60;;;;;;;32.34;35.05;98702.21;4176313;83;21976;-86
2022/06/19 12:59:21;;;;;;;7.12;1.72;;;;;;;32.22;33.18;98677.36;4179384;83;21133;-86
2022/06/19 13:06:13;;;;;;;11.60;4.50;;;;;;;32.11;34.42;98672.58;3986519;88;21181;-86
2022/06/19 13:12:42;;;;;;;7.12;1.82;;;;;;;32.02;33.33;98673.56;4011749;84;21601;-87
2022/06/19 13:19:11;;;;;;;7.25;1.50;;;;;;;32.07;33.85;98660.00;4042982;83;21653;-86
2022/06/19 13:25:56;;;;;;;5.28;2.00;;;;;;;31.94;34.17;98654.97;4214571;83;21082;-87
2022/06/19 13:32:20;;;;;;;4.53;1.87;;;;;;;31.83;33.38;98653.02;4209916;83;20982;-85
2022/06/19 13:39:11;;;;;;;6.65;1.90;;;;;;;31.82;33.19;98640.11;4246343;83;21610;-85
2022/06/19 13:46:07;;;;;;;9.70;2.17;;;;;;;31.76;33.13;98633.73;4211542;82;21027;-85
2022/06/19 13:52:38;;;;;;;7.73;1.70;;;;;;;31.64;33.63;98618.14;4137864;84;21001;-85
2022/06/19 13:59:15;;;;;;;9.65;2.12;;;;;;;31.57;33.42;98609.47;4170927;84;21064;-87
2022/06/19 14:05:38;;;;;;;9.18;2.25;;;;;;;31.44;34.38;98603.01;4208986;83;21569;-86
2022/06/19 14:18:14;;;;;;;9.00;2.02;;;;;;;31.49;33.16;98585.87;4170262;83;21046;-85
2022/06/19 14:24:24;;;;;;;9.60;1.60;;;;;;;31.52;32.84;98577.73;4235008;82;20986;-84
2022/06/19 14:30:37;;;;;;;14.28;1.87;;;;;;;31.47;32.81;98566.59;4230779;82;21131;-85
2022/06/19 14:36:42;;;;;;;7.55;2.15;;;;;;;31.39;32.50;98552.13;4205423;83;21031;-86
2022/06/19 14:43:01;;;;;;;8.18;2.37;;;;;;;31.33;33.26;98541.51;4203656;83;21471;-86
2022/06/19 14:49:32;;;;;;;9.23;2.00;;;;;;;31.31;32.67;98543.45;4209027;83;21039;-86
2022/06/19 14:56:17;;;;;;;11.85;1.90;;;;;;;31.29;32.30;98543.84;4215164;83;21097;-86
2022/06/19 15:02:36;;;;;;;4.83;1.90;;;;;;;31.27;31.94;98527.40;4199206;83;21474;-85
2022/06/19 15:08:56;;;;;;;9.03;1.75;;;;;;;31.23;32.86;98522.66;4151068;83;21177;-86
2022/06/19 15:15:24;;;;;;;6.40;1.60;;;;;;;31.18;33.55;98509.33;4150525;83;21050;-86
2022/06/19 15:21:54;;;;;;;14.07;2.33;;;;;;;31.14;34.17;98515.92;4162375;83;21638;-87
2022/06/19 15:27:56;;;;;;;10.65;1.95;;;;;;;31.16;33.46;98511.16;4081288;86;21078;-87
2022/06/19 15:34:05;;;;;;;5.33;1.52;;;;;;;31.07;33.69;98496.69;4159316;83;21018;-86
2022/06/19 15:40:26;;;;;;;7.08;1.72;;;;;;;30.96;33.01;98484.72;4129766;83;21030;-85
2022/06/19 15:46:28;;;;;;;9.85;2.40;;;;;;;30.85;33.55;98477.09;4156164;83;21070;-85
2022/06/19 15:52:46;;;;;;;6.40;2.00;;;;;;;30.67;33.87;98467.02;4142983;84;21022;-85
2022/06/19 15:58:54;;;;;;;4.60;1.75;;;;;;;30.77;32.88;98454.92;4138941;86;21900;-85
2022/06/19 16:05:00;;;;;;;10.93;2.47;;;;;;;30.82;32.06;98454.13;4157016;83;21061;-84
2022/06/19 16:11:01;;;;;;;7.70;1.55;;;;;;;30.95;30.72;98450.66;4181927;83;21060;-86
2022/06/19 16:17:08;;;;;;;8.48;2.10;;;;;;;30.93;31.02;98449.03;4142744;84;21038;-84
2022/06/19 16:23:13;;;;;;;8.43;2.15;;;;;;;30.93;30.45;98446.20;4130076;84;21105;-86
2022/06/19 16:29:19;;;;;;;7.40;2.50;;;;;;;30.92;31.11;98452.49;4146260;84;21076;-86
2022/06/19 16:48:16;;;;;;;4.95;1.82;;;;;;;30.69;30.57;98434.14;4146714;84;20998;-86
2022/06/19 16:54:26;;;;;;;7.55;1.80;;;;;;;30.63;30.18;98432.65;4144327;84;21556;-86
2022/06/19 17:00:39;;;;;;;7.25;1.95;;;;;;;30.52;30.20;98437.73;4145105;84;21077;-87
2022/06/19 17:06:46;;;;;;;;;;;;;;;30.37;30.29;98432.42;4069180;83;9999798;-86
2022/06/19 17:12:49;;;;;;;9.25;1.92;;;;;;;30.30;30.65;98426.56;4192296;83;20167;-85
2022/06/19 17:18:54;;;;;;;8.63;1.85;;;;;;;30.20;30.90;98423.27;4178212;83;21022;-86
2022/06/19 17:25:25;;;;;;;12.03;2.30;;;;;;;29.90;31.64;98433.63;4209548;83;21097;-86
2022/06/19 17:31:32;;;;;;;7.17;2.30;;;;;;;29.57;32.24;98431.55;4200272;83;21066;-86
2022/06/19 17:37:35;;;;;;;8.08;2.33;;;;;;;29.39;32.89;98434.27;4173981;83;21014;-85
2022/06/19 17:43:41;;;;;;;5.08;1.92;;;;;;;29.17;33.46;98430.70;4208322;83;21038;-86
2022/06/19 17:49:54;;;;;;;5.17;1.92;;;;;;;28.88;34.24;98433.36;4194586;83;21006;-86
2022/06/19 17:55:55;;;;;;;6.50;2.08;;;;;;;28.67;34.29;98443.34;4202981;83;21054;-86
2022/06/19 18:02:17;;;;;;;5.80;1.50;;;;;;;28.49;34.61;98436.14;4223142;83;21034;-86
2022/06/19 18:08:34;;;;;;;8.65;2.37;;;;;;;28.32;34.93;98439.52;4170914;83;21094;-85
2022/06/19 18:14:37;;;;;;;6.50;2.25;;;;;;;28.11;35.18;98439.58;4164253;83;21057;-86
2022/06/19 18:20:38;;;;;;;5.33;1.98;;;;;;;27.88;35.80;98441.42;4137662;83;21392;-86
2022/06/19 18:26:45;;;;;;;3.95;1.60;;;;;;;27.53;36.22;98443.88;4174173;83;21404;-86
2022/06/19 18:32:46;;;;;;;6.87;1.90;;;;;;;27.21;36.86;98452.20;4173185;83;21030;-86
2022/06/19 18:38:47;;;;;;;9.98;2.60;;;;;;;26.92;37.30;98445.44;4168562;83;20999;-86
2022/06/19 18:44:50;;;;;;;14.20;2.70;;;;;;;26.70;37.79;98445.23;4175934;83;21010;-86
2022/06/19 18:50:52;;;;;;;12.37;3.35;;;;;;;26.47;38.45;98437.84;4169326;83;20994;-86
2022/06/19 18:56:54;;;;;;;19.12;2.72;;;;;;;26.27;39.13;98437.89;4167784;83;21922;-86
2022/06/19 19:02:55;;;;;;;7.17;2.72;;;;;;;25.99;39.79;98435.38;4168508;83;21562;-86
2022/06/19 19:08:56;;;;;;;7.10;2.67;;;;;;;25.79;39.77;98448.00;4157681;83;21002;-86
2022/06/19 19:15:12;;;;;;;9.88;2.45;;;;;;;25.61;40.45;98439.84;4160985;84;21570;-86
2022/06/19 19:21:14;;;;;;;7.43;2.70;;;;;;;25.39;40.92;98445.91;4164539;84;21002;-86
2022/06/19 19:27:15;;;;;;;8.38;2.58;;;;;;;25.13;41.54;98442.17;4151323;84;21753;-86
2022/06/19 19:33:17;;;;;;;9.03;2.77;;;;;;;24.89;41.99;98443.54;4210673;83;21075;-86
2022/06/19 19:39:19;;;;;;;10.85;2.98;;;;;;;24.57;42.35;98446.67;4214994;83;21022;-86
2022/06/19 19:52:26;;;;;;;12.25;2.65;;;;;;;24.06;43.38;98453.17;4208433;83;21816;-86
2022/06/19 19:58:48;;;;;;;4.65;2.70;;;;;;;23.79;44.14;98442.19;4159763;83;21519;-85
2022/06/19 20:04:58;;;;;;;7.87;2.77;;;;;;;23.59;44.73;98444.16;4172595;84;21036;-86
2022/06/19 20:10:59;;;;;;;7.67;3.33;;;;;;;23.39;45.40;98440.40;4167808;84;21059;-86
2022/06/19 20:17:07;;;;;;;7.17;2.55;;;;;;;23.18;45.62;98440.16;4161982;84;21964;-86
2022/06/19 20:23:16;;;;;;;8.10;2.95;;;;;;;22.97;46.02;98448.15;4161629;84;21157;-86
2022/06/19 20:29:26;;;;;;;7.58;3.20;;;;;;;22.75;46.34;98454.59;4220829;82;22194;-86
2022/06/19 20:35:32;;;;;;;9.33;3.35;;;;;;;22.57;46.93;98458.81;4237944;82;21113;-86
2022/06/19 20:48:01;;;;;;;10.78;2.60;;;;;;;21.94;48.42;98458.80;4240136;82;22271;-85
2022/06/19 20:54:03;;;;;;;5.85;3.08;;;;;;;21.61;49.39;98465.54;4178022;83;21090;-86
2022/06/19 21:00:43;;;;;;;5.55;2.98;;;;;;;21.42;50.97;98470.15;4146891;83;21126;-86
2022/06/19 21:06:45;;;;;;;13.30;3.22;;;;;;;21.23;51.12;98465.14;4182147;83;21029;-86
2022/06/19 21:12:47;;;;;;;8.95;4.10;;;;;;;21.06;51.60;98474.19;4147664;83;21074;-85
2022/06/19 21:18:54;;;;;;;9.18;3.87;;;;;;;20.80;52.42;98469.37;4153412;83;22348;-85
2022/06/19 21:25:26;;;;;;;9.90;4.15;;;;;;;20.80;54.10;98471.38;4148312;83;21096;-85
2022/06/19 21:31:27;;;;;;;7.85;4.17;;;;;;;20.59;54.29;98478.54;4152182;84;21019;-85
2022/06/19 21:37:29;;;;;;;9.70;3.67;;;;;;;20.25;54.88;98471.63;4121610;84;21066;-86
2022/06/19 21:43:37;;;;;;;12.82;3.67;;;;;;;20.13;56.04;98477.42;4153471;83;20987;-85
2022/06/19 21:49:47;;;;;;;7.58;3.65;;;;;;;20.02;56.86;98478.38;4159279;86;21010;-85
2022/06/19 21:55:58;;;;;;;6.33;4.33;;;;;;;19.99;57.87;98474.33;4147013;84;21019;-85
2022/06/19 22:02:04;;;;;;;7.92;4.28;;;;;;;19.90;58.66;98483.38;4164803;83;21062;-84
2022/06/19 22:08:21;;;;;;;11.70;5.13;;;;;;;19.67;59.46;98466.33;4167503;82;21070;-85
2022/06/19 22:14:44;;;;;;;8.08;4.47;;;;;;;19.35;59.34;98470.15;4158310;84;22242;-85
2022/06/19 22:20:52;;;;;;;11.73;4.92;;;;;;;19.08;60.33;98473.95;4156434;84;21597;-85
2022/06/19 22:27:04;;;;;;;9.13;4.70;;;;;;;18.92;60.95;98474.67;4157300;84;21050;-86
2022/06/19 22:33:14;;;;;;;12.37;4.70;;;;;;;18.72;61.13;98454.06;4139972;84;21006;-86
2022/06/19 22:39:35;;;;;;;10.43;5.17;;;;;;;18.44;61.68;98464.00;4101357;85;21558;-86
2022/06/19 22:45:37;;;;;;;8.65;4.00;;;;;;;18.30;62.69;98458.83;4106084;85;21046;-85
2022/06/19 22:51:49;;;;;;;11.18;4.70;;;;;;;18.32;63.90;98452.22;4104164;85;21137;-85
2022/06/19 23:01:40;;;;;;;11.00;4.53;;;;;;;18.31;64.02;98467.30;4112285;85;21035;-85
2022/06/19 23:04:35;;;;;;;10.85;5.10;;;;;;;18.09;64.07;98465.55;4103609;84;21186;-86
2022/06/19 23:10:45;;;;;;;6.35;4.70;;;;;;;17.94;64.79;98463.79;4138208;84;21114;-85
2022/06/19 23:17:08;;;;;;;13.40;5.42;;;;;;;17.80;65.91;98475.23;4124444;84;21109;-86
2022/06/19 23:23:27;;;;;;;9.83;5.00;;;;;;;17.68;65.96;98482.09;4142055;84;21080;-85
2022/06/19 23:36:01;;;;;;;13.22;4.80;;;;;;;17.43;68.65;98471.59;4103439;85;20141;-85
2022/06/19 23:42:24;;;;;;;8.43;5.10;;;;;;;17.13;67.07;98460.25;4078391;85;21110;-86
2022/06/19 23:48:42;;;;;;;10.38;4.30;;;;;;;17.19;68.40;98446.08;4161770;84;21336;-85
2022/06/19 23:55:01;;;;;;;13.30;6.28;;;;;;;17.40;69.06;98453.71;4143588;84;21571;-85
